sensor_id;sensor_type;location;lat;lon;timestamp;pressure;altitude;pressure_sealevel;temperature;humidity
21520;BME280;10921;53.614;9.882;2023-03-25T00:00:10;99736.41;;;10.64;87.20
21520;BME280;10921;53.614;9.882;2023-03-25T00:02:42;99740.38;;;10.60;87.14
21520;BME280;10921;53.614;9.882;2023-03-25T00:05:11;99710.56;;;10.40;87.88
21520;BME280;10921;53.614;9.882;2023-03-25T00:07:40;99725.91;;;10.38;87.94
21520;BME280;10921;53.614;9.882;2023-03-25T00:10:08;99723.56;;;10.43;88.74
21520;BME280;10921;53.614;9.882;2023-03-25T00:12:35;99712.44;;;10.23;89.17
21520;BME280;10921;53.614;9.882;2023-03-25T00:15:01;99664.22;;;10.00;88.84
21520;BME280;10921;53.614;9.882;2023-03-25T00:17:28;99704.91;;;10.27;88.52
21520;BME280;10921;53.614;9.882;2023-03-25T00:19:57;99736.91;;;10.43;88.35
21520;BME280;10921;53.614;9.882;2023-03-25T00:22:28;99713.91;;;10.26;88.35
21520;BME280;10921;53.614;9.882;2023-03-25T00:24:54;99688.22;;;10.16;88.25
21520;BME280;10921;53.614;9.882;2023-03-25T00:27:21;99704.44;;;10.23;88.08
21520;BME280;10921;53.614;9.882;2023-03-25T00:29:47;99731.56;;;10.35;87.92
21520;BME280;10921;53.614;9.882;2023-03-25T00:32:14;99723.06;;;10.31;88.22
21520;BME280;10921;53.614;9.882;2023-03-25T00:34:42;99700.03;;;10.14;88.47
21520;BME280;10921;53.614;9.882;2023-03-25T00:37:13;99718.22;;;10.27;88.51
21520;BME280;10921;53.614;9.882;2023-03-25T00:39:43;99715.56;;;10.27;88.31
21520;BME280;10921;53.614;9.882;2023-03-25T00:42:11;99719.22;;;10.26;88.21
21520;BME280;10921;53.614;9.882;2023-03-25T00:44:40;99658.91;;;9.92;87.76
21520;BME280;10921;53.614;9.882;2023-03-25T00:47:07;99707.41;;;10.28;87.62
21520;BME280;10921;53.614;9.882;2023-03-25T00:49:33;99692.38;;;10.03;87.63
21520;BME280;10921;53.614;9.882;2023-03-25T00:52:00;99683.53;;;10.10;87.76
21520;BME280;10921;53.614;9.882;2023-03-25T00:54:27;99693.56;;;10.16;88.02
21520;BME280;10921;53.614;9.882;2023-03-25T00:56:54;99719.56;;;10.31;87.69
21520;BME280;10921;53.614;9.882;2023-03-25T00:59:21;99663.06;;;9.95;88.08
21520;BME280;10921;53.614;9.882;2023-03-25T01:01:47;99679.06;;;10.11;87.88
21520;BME280;10921;53.614;9.882;2023-03-25T01:04:14;99718.09;;;10.36;87.75
21520;BME280;10921;53.614;9.882;2023-03-25T01:06:44;99717.91;;;10.46;87.66
21520;BME280;10921;53.614;9.882;2023-03-25T01:09:12;99709.06;;;10.45;87.66
21520;BME280;10921;53.614;9.882;2023-03-25T01:11:41;99674.91;;;10.25;87.37
21520;BME280;10921;53.614;9.882;2023-03-25T01:14:12;99688.72;;;10.44;87.33
21520;BME280;10921;53.614;9.882;2023-03-25T01:16:39;99709.22;;;10.44;86.91
21520;BME280;10921;53.614;9.882;2023-03-25T01:19:06;99709.53;;;10.57;86.86
21520;BME280;10921;53.614;9.882;2023-03-25T01:21:33;99713.53;;;10.61;86.76
21520;BME280;10921;53.614;9.882;2023-03-25T01:24:11;99661.59;;;10.33;86.89
21520;BME280;10921;53.614;9.882;2023-03-25T01:26:38;99707.38;;;10.69;86.47
21520;BME280;10921;53.614;9.882;2023-03-25T01:29:06;99649.22;;;10.40;86.13
21520;BME280;10921;53.614;9.882;2023-03-25T01:31:33;99619.91;;;10.23;85.97
21520;BME280;10921;53.614;9.882;2023-03-25T01:33:59;99704.19;;;10.81;85.64
21520;BME280;10921;53.614;9.882;2023-03-25T01:36:26;99678.88;;;10.69;85.45
21520;BME280;10921;53.614;9.882;2023-03-25T01:38:57;99685.47;;;10.89;85.17
21520;BME280;10921;53.614;9.882;2023-03-25T01:41:26;99677.94;;;10.93;84.88
21520;BME280;10921;53.614;9.882;2023-03-25T01:45:02;99694.97;;;10.92;84.54
21520;BME280;10921;53.614;9.882;2023-03-25T01:46:57;99657.81;;;10.82;84.11
21520;BME280;10921;53.614;9.882;2023-03-25T01:49:34;99639.97;;;10.75;83.64
21520;BME280;10921;53.614;9.882;2023-03-25T01:52:14;99680.41;;;11.03;83.56
21520;BME280;10921;53.614;9.882;2023-03-25T01:54:43;99684.25;;;11.08;83.06
21520;BME280;10921;53.614;9.882;2023-03-25T01:57:14;99657.22;;;11.03;82.55
21520;BME280;10921;53.614;9.882;2023-03-25T01:59:45;99660.38;;;11.07;82.26
21520;BME280;10921;53.614;9.882;2023-03-25T02:02:15;99611.44;;;10.83;82.33
21520;BME280;10921;53.614;9.882;2023-03-25T02:04:50;99658.88;;;11.12;82.29
21520;BME280;10921;53.614;9.882;2023-03-25T02:07:26;99664.50;;;11.17;81.92
21520;BME280;10921;53.614;9.882;2023-03-25T02:09:59;99636.69;;;11.12;81.41
21520;BME280;10921;53.614;9.882;2023-03-25T02:12:27;99644.38;;;11.07;81.35
21520;BME280;10921;53.614;9.882;2023-03-25T02:14:54;99620.56;;;10.97;81.07
21520;BME280;10921;53.614;9.882;2023-03-25T02:25:49;99660.75;;;11.35;80.39
21520;BME280;10921;53.614;9.882;2023-03-25T02:39:13;99647.78;;;11.23;80.36
21520;BME280;10921;53.614;9.882;2023-03-25T02:41:54;99628.00;;;11.10;80.16
21520;BME280;10921;53.614;9.882;2023-03-25T02:47:02;99590.09;;;10.83;79.93
21520;BME280;10921;53.614;9.882;2023-03-25T02:49:33;99598.72;;;10.93;79.87
21520;BME280;10921;53.614;9.882;2023-03-25T02:54:36;99588.91;;;10.86;79.85
21520;BME280;10921;53.614;9.882;2023-03-25T02:57:08;99580.44;;;10.82;79.93
21520;BME280;10921;53.614;9.882;2023-03-25T02:59:37;99595.56;;;10.90;79.92
21520;BME280;10921;53.614;9.882;2023-03-25T03:02:08;99612.19;;;11.00;79.77
21520;BME280;10921;53.614;9.882;2023-03-25T03:04:49;99603.19;;;11.01;79.75
21520;BME280;10921;53.614;9.882;2023-03-25T03:07:26;99593.06;;;10.88;79.42
21520;BME280;10921;53.614;9.882;2023-03-25T03:10:08;99599.66;;;11.01;79.46
21520;BME280;10921;53.614;9.882;2023-03-25T03:13:07;99597.00;;;11.01;79.35
21520;BME280;10921;53.614;9.882;2023-03-25T03:20:59;99609.50;;;11.08;79.09
21520;BME280;10921;53.614;9.882;2023-03-25T03:23:47;99555.44;;;10.75;79.12
21520;BME280;10921;53.614;9.882;2023-03-25T03:29:56;99567.56;;;10.86;78.86
21520;BME280;10921;53.614;9.882;2023-03-25T03:32:45;99626.44;;;11.23;78.60
21520;BME280;10921;53.614;9.882;2023-03-25T03:35:23;99623.75;;;11.23;78.88
21520;BME280;10921;53.614;9.882;2023-03-25T03:38:05;99598.38;;;10.97;78.41
21520;BME280;10921;53.614;9.882;2023-03-25T03:40:35;99625.59;;;11.23;78.20
21520;BME280;10921;53.614;9.882;2023-03-25T03:43:05;99628.63;;;11.20;77.96
21520;BME280;10921;53.614;9.882;2023-03-25T03:45:38;99615.16;;;11.13;77.99
21520;BME280;10921;53.614;9.882;2023-03-25T03:48:16;99621.59;;;11.19;77.67
21520;BME280;10921;53.614;9.882;2023-03-25T03:50:52;99569.75;;;10.82;77.96
21520;BME280;10921;53.614;9.882;2023-03-25T03:53:29;99632.28;;;11.19;77.71
21520;BME280;10921;53.614;9.882;2023-03-25T03:56:10;99612.59;;;11.20;77.80
21520;BME280;10921;53.614;9.882;2023-03-25T03:58:41;99565.69;;;10.95;77.16
21520;BME280;10921;53.614;9.882;2023-03-25T04:01:45;99615.59;;;11.25;77.34
21520;BME280;10921;53.614;9.882;2023-03-25T04:04:17;99556.75;;;10.79;78.14
21520;BME280;10921;53.614;9.882;2023-03-25T04:07:11;99520.66;;;10.61;78.18
21520;BME280;10921;53.614;9.882;2023-03-25T04:12:15;99613.03;;;11.01;78.49
21520;BME280;10921;53.614;9.882;2023-03-25T04:14:43;99614.97;;;11.15;78.46
21520;BME280;10921;53.614;9.882;2023-03-25T04:17:10;99550.28;;;10.74;78.41
21520;BME280;10921;53.614;9.882;2023-03-25T04:19:37;99570.59;;;10.83;78.58
21520;BME280;10921;53.614;9.882;2023-03-25T04:22:04;99573.09;;;10.84;78.44
21520;BME280;10921;53.614;9.882;2023-03-25T04:24:31;99562.59;;;10.83;78.42
21520;BME280;10921;53.614;9.882;2023-03-25T04:27:01;99608.00;;;11.06;78.53
21520;BME280;10921;53.614;9.882;2023-03-25T04:29:30;99561.28;;;10.71;78.21
21520;BME280;10921;53.614;9.882;2023-03-25T04:31:57;99597.00;;;11.01;78.10
21520;BME280;10921;53.614;9.882;2023-03-25T04:34:24;99563.13;;;10.70;77.94
21520;BME280;10921;53.614;9.882;2023-03-25T04:36:53;99639.63;;;11.17;79.44
21520;BME280;10921;53.614;9.882;2023-03-25T04:39:21;99597.97;;;10.77;80.42
21520;BME280;10921;53.614;9.882;2023-03-25T04:41:49;99657.53;;;11.08;81.51
21520;BME280;10921;53.614;9.882;2023-03-25T04:44:16;99618.25;;;10.86;81.68
21520;BME280;10921;53.614;9.882;2023-03-25T04:46:42;99643.94;;;10.87;81.55
21520;BME280;10921;53.614;9.882;2023-03-25T04:49:16;99631.31;;;10.81;82.83
21520;BME280;10921;53.614;9.882;2023-03-25T04:51:44;99637.63;;;10.80;83.25
21520;BME280;10921;53.614;9.882;2023-03-25T04:54:13;99637.47;;;10.73;83.85
21520;BME280;10921;53.614;9.882;2023-03-25T04:56:43;99554.78;;;10.18;84.39
21520;BME280;10921;53.614;9.882;2023-03-25T04:59:09;99586.94;;;10.33;85.21
21520;BME280;10921;53.614;9.882;2023-03-25T05:01:38;99635.56;;;10.51;85.45
21520;BME280;10921;53.614;9.882;2023-03-25T05:04:09;99646.69;;;10.54;85.45
21520;BME280;10921;53.614;9.882;2023-03-25T05:06:39;99641.06;;;10.49;86.41
21520;BME280;10921;53.614;9.882;2023-03-25T05:09:10;99585.81;;;10.19;87.09
21520;BME280;10921;53.614;9.882;2023-03-25T05:11:38;99597.59;;;10.08;86.96
21520;BME280;10921;53.614;9.882;2023-03-25T05:14:11;99646.25;;;10.35;89.10
21520;BME280;10921;53.614;9.882;2023-03-25T05:16:39;99650.59;;;10.36;88.48
21520;BME280;10921;53.614;9.882;2023-03-25T05:19:06;99650.09;;;10.32;89.22
21520;BME280;10921;53.614;9.882;2023-03-25T05:21:34;99621.41;;;10.10;89.64
21520;BME280;10921;53.614;9.882;2023-03-25T05:24:02;99620.56;;;10.09;89.76
21520;BME280;10921;53.614;9.882;2023-03-25T05:26:29;99634.09;;;10.24;89.95
21520;BME280;10921;53.614;9.882;2023-03-25T05:29:03;99606.13;;;10.04;90.58
21520;BME280;10921;53.614;9.882;2023-03-25T05:31:30;99635.25;;;10.30;90.23
21520;BME280;10921;53.614;9.882;2023-03-25T05:33:57;99639.63;;;10.23;90.25
21520;BME280;10921;53.614;9.882;2023-03-25T05:36:23;99644.75;;;10.16;91.12
21520;BME280;10921;53.614;9.882;2023-03-25T05:38:51;99599.28;;;9.85;92.06
21520;BME280;10921;53.614;9.882;2023-03-25T05:41:20;99639.06;;;10.11;91.78
21520;BME280;10921;53.614;9.882;2023-03-25T05:43:48;99630.94;;;10.04;92.12
21520;BME280;10921;53.614;9.882;2023-03-25T05:46:17;99631.75;;;9.97;91.84
21520;BME280;10921;53.614;9.882;2023-03-25T05:48:44;99636.09;;;9.98;91.93
21520;BME280;10921;53.614;9.882;2023-03-25T05:51:17;99647.91;;;10.11;92.30
21520;BME280;10921;53.614;9.882;2023-03-25T05:53:47;99650.72;;;10.10;91.84
21520;BME280;10921;53.614;9.882;2023-03-25T05:56:17;99658.56;;;10.11;91.99
21520;BME280;10921;53.614;9.882;2023-03-25T05:58:46;99647.75;;;10.05;91.51
21520;BME280;10921;53.614;9.882;2023-03-25T06:01:14;99659.25;;;10.05;91.41
21520;BME280;10921;53.614;9.882;2023-03-25T06:03:58;99654.75;;;10.06;91.00
21520;BME280;10921;53.614;9.882;2023-03-25T06:06:27;99622.94;;;9.88;90.99
21520;BME280;10921;53.614;9.882;2023-03-25T06:08:56;99654.59;;;10.07;90.83
21520;BME280;10921;53.614;9.882;2023-03-25T06:11:24;99660.56;;;10.09;90.59
21520;BME280;10921;53.614;9.882;2023-03-25T06:13:50;99628.25;;;9.96;90.35
21520;BME280;10921;53.614;9.882;2023-03-25T06:16:22;99580.47;;;9.70;90.31
21520;BME280;10921;53.614;9.882;2023-03-25T06:18:52;99660.44;;;10.19;90.09
21520;BME280;10921;53.614;9.882;2023-03-25T06:21:27;99622.09;;;9.87;89.74
21520;BME280;10921;53.614;9.882;2023-03-25T06:23:54;99673.44;;;10.22;89.61
21520;BME280;10921;53.614;9.882;2023-03-25T06:26:23;99607.78;;;9.88;89.33
21520;BME280;10921;53.614;9.882;2023-03-25T06:28:50;99627.94;;;9.75;89.41
21520;BME280;10921;53.614;9.882;2023-03-25T06:31:24;99622.91;;;9.96;90.13
21520;BME280;10921;53.614;9.882;2023-03-25T06:33:58;99676.25;;;10.29;89.22
21520;BME280;10921;53.614;9.882;2023-03-25T06:36:24;99683.75;;;10.33;89.25
21520;BME280;10921;53.614;9.882;2023-03-25T06:38:51;99674.59;;;10.36;88.87
21520;BME280;10921;53.614;9.882;2023-03-25T06:41:19;99655.91;;;10.28;89.26
21520;BME280;10921;53.614;9.882;2023-03-25T06:43:47;99674.06;;;10.40;89.55
21520;BME280;10921;53.614;9.882;2023-03-25T06:46:13;99660.59;;;10.34;89.31
21520;BME280;10921;53.614;9.882;2023-03-25T06:48:40;99667.91;;;10.48;89.80
21520;BME280;10921;53.614;9.882;2023-03-25T06:51:07;99636.59;;;10.34;89.22
21520;BME280;10921;53.614;9.882;2023-03-25T06:53:33;99593.09;;;10.09;89.03
21520;BME280;10921;53.614;9.882;2023-03-25T06:56:00;99672.53;;;10.62;88.22
21520;BME280;10921;53.614;9.882;2023-03-25T06:58:26;99645.22;;;10.52;88.75
21520;BME280;10921;53.614;9.882;2023-03-25T07:01:01;99666.53;;;10.68;88.00
21520;BME280;10921;53.614;9.882;2023-03-25T07:03:32;99681.22;;;10.64;87.19
21520;BME280;10921;53.614;9.882;2023-03-25T07:05:58;99618.09;;;10.24;86.76
21520;BME280;10921;53.614;9.882;2023-03-25T07:08:25;99677.88;;;10.62;86.16
21520;BME280;10921;53.614;9.882;2023-03-25T07:10:51;99639.56;;;10.47;86.30
21520;BME280;10921;53.614;9.882;2023-03-25T07:13:18;99594.47;;;10.21;87.35
21520;BME280;10921;53.614;9.882;2023-03-25T07:15:44;99631.72;;;10.53;87.04
21520;BME280;10921;53.614;9.882;2023-03-25T07:18:11;99682.34;;;10.78;86.95
21520;BME280;10921;53.614;9.882;2023-03-25T07:20:38;99653.81;;;10.70;86.17
21520;BME280;10921;53.614;9.882;2023-03-25T07:23:11;99651.00;;;10.72;85.57
21520;BME280;10921;53.614;9.882;2023-03-25T07:25:37;99676.47;;;10.90;84.83
21520;BME280;10921;53.614;9.882;2023-03-25T07:28:04;99645.19;;;10.68;84.86
21520;BME280;10921;53.614;9.882;2023-03-25T07:30:31;99628.19;;;10.61;84.50
21520;BME280;10921;53.614;9.882;2023-03-25T07:32:57;99628.41;;;10.51;84.86
21520;BME280;10921;53.614;9.882;2023-03-25T07:35:24;99668.66;;;10.81;85.24
21520;BME280;10921;53.614;9.882;2023-03-25T07:37:51;99651.66;;;10.74;84.30
21520;BME280;10921;53.614;9.882;2023-03-25T07:40:17;99663.50;;;10.79;84.57
21520;BME280;10921;53.614;9.882;2023-03-25T07:42:44;99695.13;;;10.90;84.61
21520;BME280;10921;53.614;9.882;2023-03-25T07:45:11;99689.97;;;10.97;84.76
21520;BME280;10921;53.614;9.882;2023-03-25T07:47:37;99605.88;;;10.54;85.23
21520;BME280;10921;53.614;9.882;2023-03-25T07:50:05;99696.91;;;11.06;84.90
21520;BME280;10921;53.614;9.882;2023-03-25T07:52:31;99652.44;;;10.90;85.22
21520;BME280;10921;53.614;9.882;2023-03-25T07:54:58;99686.41;;;11.05;85.11
21520;BME280;10921;53.614;9.882;2023-03-25T07:57:26;99646.78;;;10.85;85.09
21520;BME280;10921;53.614;9.882;2023-03-25T07:59:53;99658.59;;;10.91;85.06
21520;BME280;10921;53.614;9.882;2023-03-25T08:02:21;99687.75;;;11.09;85.24
21520;BME280;10921;53.614;9.882;2023-03-25T08:04:48;99613.19;;;10.68;85.74
21520;BME280;10921;53.614;9.882;2023-03-25T08:07:14;99688.53;;;11.17;85.51
21520;BME280;10921;53.614;9.882;2023-03-25T08:09:41;99686.34;;;11.21;85.05
21520;BME280;10921;53.614;9.882;2023-03-25T08:12:08;99669.44;;;10.98;84.21
21520;BME280;10921;53.614;9.882;2023-03-25T08:14:35;99623.81;;;10.76;84.28
21520;BME280;10921;53.614;9.882;2023-03-25T08:17:03;99660.44;;;10.90;84.55
21520;BME280;10921;53.614;9.882;2023-03-25T08:19:29;99631.13;;;10.82;85.11
21520;BME280;10921;53.614;9.882;2023-03-25T08:21:57;99658.59;;;10.91;85.23
21520;BME280;10921;53.614;9.882;2023-03-25T08:24:24;99677.56;;;11.04;86.04
21520;BME280;10921;53.614;9.882;2023-03-25T08:26:52;99694.19;;;11.22;85.20
21520;BME280;10921;53.614;9.882;2023-03-25T08:29:21;99654.72;;;11.02;84.90
21520;BME280;10921;53.614;9.882;2023-03-25T08:31:49;99692.78;;;11.35;84.74
21520;BME280;10921;53.614;9.882;2023-03-25T08:34:19;99682.81;;;11.28;83.54
21520;BME280;10921;53.614;9.882;2023-03-25T08:36:46;99648.03;;;11.14;84.07
21520;BME280;10921;53.614;9.882;2023-03-25T08:39:13;99684.44;;;11.38;83.17
21520;BME280;10921;53.614;9.882;2023-03-25T08:41:43;99664.75;;;11.31;82.41
21520;BME280;10921;53.614;9.882;2023-03-25T08:44:10;99692.94;;;11.41;82.02
21520;BME280;10921;53.614;9.882;2023-03-25T08:46:40;99689.56;;;11.47;82.34
21520;BME280;10921;53.614;9.882;2023-03-25T08:49:06;99684.59;;;11.36;82.13
21520;BME280;10921;53.614;9.882;2023-03-25T08:51:33;99618.25;;;10.94;82.07
21520;BME280;10921;53.614;9.882;2023-03-25T08:53:59;99633.19;;;11.11;83.08
21520;BME280;10921;53.614;9.882;2023-03-25T08:56:29;99664.81;;;11.22;83.89
21520;BME280;10921;53.614;9.882;2023-03-25T08:58:56;99648.56;;;11.01;83.36
21520;BME280;10921;53.614;9.882;2023-03-25T09:01:22;99693.19;;;11.23;83.33
21520;BME280;10921;53.614;9.882;2023-03-25T09:03:49;99658.94;;;10.96;84.00
21520;BME280;10921;53.614;9.882;2023-03-25T09:06:16;99644.16;;;10.77;82.67
21520;BME280;10921;53.614;9.882;2023-03-25T09:08:43;99720.28;;;11.12;83.04
21520;BME280;10921;53.614;9.882;2023-03-25T09:11:15;99716.44;;;11.07;83.38
21520;BME280;10921;53.614;9.882;2023-03-25T09:13:55;99666.53;;;10.68;83.73
21520;BME280;10921;53.614;9.882;2023-03-25T09:16:22;99708.81;;;10.87;83.70
21520;BME280;10921;53.614;9.882;2023-03-25T09:18:48;99661.56;;;10.41;83.94
21520;BME280;10921;53.614;9.882;2023-03-25T09:21:15;99693.22;;;10.60;83.90
21520;BME280;10921;53.614;9.882;2023-03-25T09:23:41;99680.59;;;10.38;83.91
21520;BME280;10921;53.614;9.882;2023-03-25T09:26:08;99721.38;;;10.63;84.06
21520;BME280;10921;53.614;9.882;2023-03-25T09:28:35;99679.75;;;10.37;84.60
21520;BME280;10921;53.614;9.882;2023-03-25T09:31:01;99671.25;;;10.34;84.29
21520;BME280;10921;53.614;9.882;2023-03-25T09:33:28;99718.38;;;10.57;84.19
21520;BME280;10921;53.614;9.882;2023-03-25T09:35:54;99657.09;;;10.25;83.67
21520;BME280;10921;53.614;9.882;2023-03-25T09:38:21;99659.59;;;10.18;83.71
21520;BME280;10921;53.614;9.882;2023-03-25T09:40:48;99705.41;;;10.46;83.72
21520;BME280;10921;53.614;9.882;2023-03-25T09:45:48;99699.88;;;10.40;83.64
21520;BME280;10921;53.614;9.882;2023-03-25T09:51:08;99689.91;;;10.34;84.42
21520;BME280;10921;53.614;9.882;2023-03-25T09:53:42;99681.59;;;10.20;84.53
21520;BME280;10921;53.614;9.882;2023-03-25T09:56:15;99682.75;;;10.26;84.93
21520;BME280;10921;53.614;9.882;2023-03-25T09:58:47;99681.59;;;10.37;85.54
21520;BME280;10921;53.614;9.882;2023-03-25T10:01:40;99662.41;;;10.17;84.85
21520;BME280;10921;53.614;9.882;2023-03-25T10:04:31;99681.56;;;10.45;85.20
21520;BME280;10921;53.614;9.882;2023-03-25T10:18:54;99689.47;;;11.33;83.72
21520;BME280;10921;53.614;9.882;2023-03-25T10:21:56;99701.88;;;11.87;81.50
21520;BME280;10921;53.614;9.882;2023-03-25T10:24:25;99714.09;;;12.27;79.95
21520;BME280;10921;53.614;9.882;2023-03-25T10:27:00;99673.91;;;12.21;77.32
21520;BME280;10921;53.614;9.882;2023-03-25T10:30:12;99712.44;;;12.64;75.08
21520;BME280;10921;53.614;9.882;2023-03-25T10:32:43;99724.09;;;12.86;74.26
21520;BME280;10921;53.614;9.882;2023-03-25T10:35:27;99725.03;;;12.93;73.58
21520;BME280;10921;53.614;9.882;2023-03-25T10:38:01;99664.00;;;12.59;73.59
21520;BME280;10921;53.614;9.882;2023-03-25T10:40:42;99701.19;;;12.83;73.40
21520;BME280;10921;53.614;9.882;2023-03-25T10:45:50;99703.97;;;13.04;73.36
21520;BME280;10921;53.614;9.882;2023-03-25T10:48:23;99712.59;;;13.15;73.24
21520;BME280;10921;53.614;9.882;2023-03-25T10:51:11;99652.09;;;12.91;71.60
21520;BME280;10921;53.614;9.882;2023-03-25T10:53:39;99698.47;;;13.21;69.72
21520;BME280;10921;53.614;9.882;2023-03-25T10:56:18;99690.22;;;13.08;69.13
21520;BME280;10921;53.614;9.882;2023-03-25T10:58:51;99638.06;;;12.74;68.17
21520;BME280;10921;53.614;9.882;2023-03-25T11:01:20;99696.31;;;13.01;67.97
21520;BME280;10921;53.614;9.882;2023-03-25T11:03:51;99685.88;;;12.77;69.16
21520;BME280;10921;53.614;9.882;2023-03-25T11:06:25;99618.09;;;12.18;70.45
21520;BME280;10921;53.614;9.882;2023-03-25T11:09:13;99738.22;;;12.42;71.41
21520;BME280;10921;53.614;9.882;2023-03-25T11:11:41;99697.13;;;11.97;72.40
21520;BME280;10921;53.614;9.882;2023-03-25T11:14:11;99699.63;;;11.68;74.17
21520;BME280;10921;53.614;9.882;2023-03-25T11:16:45;99760.09;;;11.69;75.20
21520;BME280;10921;53.614;9.882;2023-03-25T11:19:32;99757.81;;;11.50;75.44
21520;BME280;10921;53.614;9.882;2023-03-25T11:22:12;99729.78;;;11.07;76.74
21520;BME280;10921;53.614;9.882;2023-03-25T11:24:43;99735.50;;;10.87;77.04
21520;BME280;10921;53.614;9.882;2023-03-25T11:27:25;99722.34;;;10.70;78.19
21520;BME280;10921;53.614;9.882;2023-03-25T11:30:03;99766.22;;;10.83;79.20
21520;BME280;10921;53.614;9.882;2023-03-25T11:32:38;99701.56;;;10.41;80.70
21520;BME280;10921;53.614;9.882;2023-03-25T11:35:17;99739.38;;;10.61;81.87
21520;BME280;10921;53.614;9.882;2023-03-25T11:37:53;99747.88;;;10.72;84.61
21520;BME280;10921;53.614;9.882;2023-03-25T11:40:21;99732.69;;;10.73;85.77
21520;BME280;10921;53.614;9.882;2023-03-25T11:42:53;99727.50;;;10.87;86.19
21520;BME280;10921;53.614;9.882;2023-03-25T11:45:21;99727.78;;;11.09;85.95
21520;BME280;10921;53.614;9.882;2023-03-25T11:47:49;99678.44;;;10.97;86.39
21520;BME280;10921;53.614;9.882;2023-03-25T11:50:25;99692.50;;;11.30;86.07
21520;BME280;10921;53.614;9.882;2023-03-25T11:52:55;99666.56;;;11.38;86.26
21520;BME280;10921;53.614;9.882;2023-03-25T11:55:51;99680.34;;;11.58;82.20
21520;BME280;10921;53.614;9.882;2023-03-25T11:58:19;99701.28;;;12.00;80.65
21520;BME280;10921;53.614;9.882;2023-03-25T12:00:48;99617.50;;;11.62;79.27
21520;BME280;10921;53.614;9.882;2023-03-25T12:03:24;99695.59;;;12.41;79.25
21520;BME280;10921;53.614;9.882;2023-03-25T12:06:12;99670.59;;;12.33;78.58
21520;BME280;10921;53.614;9.882;2023-03-25T12:09:05;99708.38;;;12.68;74.13
21520;BME280;10921;53.614;9.882;2023-03-25T12:16:57;99649.34;;;12.17;75.16
21520;BME280;10921;53.614;9.882;2023-03-25T12:25:00;99688.53;;;12.25;76.61
21520;BME280;10921;53.614;9.882;2023-03-25T12:27:58;99682.78;;;12.36;80.56
21520;BME280;10921;53.614;9.882;2023-03-25T12:30:43;99684.47;;;12.52;78.90
21520;BME280;10921;53.614;9.882;2023-03-25T12:36:17;99648.13;;;12.87;76.12
21520;BME280;10921;53.614;9.882;2023-03-25T12:38:48;99679.81;;;13.13;72.71
21520;BME280;10921;53.614;9.882;2023-03-25T12:44:07;99680.00;;;13.26;71.70
21520;BME280;10921;53.614;9.882;2023-03-25T12:49:39;99671.84;;;13.19;72.34
21520;BME280;10921;53.614;9.882;2023-03-25T12:55:04;99633.00;;;12.64;70.21
21520;BME280;10921;53.614;9.882;2023-03-25T13:00:46;99666.19;;;12.70;70.42
21520;BME280;10921;53.614;9.882;2023-03-25T13:06:00;99675.13;;;12.33;71.24
21520;BME280;10921;53.614;9.882;2023-03-25T13:08:36;99654.41;;;12.12;72.13
21520;BME280;10921;53.614;9.882;2023-03-25T13:11:16;99683.03;;;12.26;73.21
21520;BME280;10921;53.614;9.882;2023-03-25T13:13:47;99668.25;;;12.16;72.98
21520;BME280;10921;53.614;9.882;2023-03-25T13:16:20;99691.53;;;12.07;73.67
21520;BME280;10921;53.614;9.882;2023-03-25T13:19:02;99647.16;;;11.75;75.19
21520;BME280;10921;53.614;9.882;2023-03-25T13:21:35;99682.00;;;11.90;75.69
21520;BME280;10921;53.614;9.882;2023-03-25T13:24:32;99690.63;;;11.92;77.43
21520;BME280;10921;53.614;9.882;2023-03-25T13:27:00;99689.34;;;11.88;78.65
21520;BME280;10921;53.614;9.882;2023-03-25T13:29:41;99622.94;;;11.46;78.73
21520;BME280;10921;53.614;9.882;2023-03-25T13:32:16;99670.94;;;11.62;79.33
21520;BME280;10921;53.614;9.882;2023-03-25T13:34:49;99672.00;;;11.53;79.89
21520;BME280;10921;53.614;9.882;2023-03-25T13:37:35;99649.78;;;11.30;80.38
21520;BME280;10921;53.614;9.882;2023-03-25T13:48:26;99675.72;;;11.75;78.71
21520;BME280;10921;53.614;9.882;2023-03-25T13:50:59;99646.72;;;11.63;77.85
21520;BME280;10921;53.614;9.882;2023-03-25T13:53:32;99703.06;;;12.08;76.47
21520;BME280;10921;53.614;9.882;2023-03-25T14:13:32;99693.63;;;11.97;76.19
21520;BME280;10921;53.614;9.882;2023-03-25T14:16:06;99667.31;;;11.86;76.60
21520;BME280;10921;53.614;9.882;2023-03-25T14:18:48;99694.28;;;11.99;76.89
21520;BME280;10921;53.614;9.882;2023-03-25T14:26:32;99683.59;;;11.68;76.82
21520;BME280;10921;53.614;9.882;2023-03-25T14:29:07;99655.66;;;11.48;77.65
21520;BME280;10921;53.614;9.882;2023-03-25T14:31:34;99659.72;;;11.44;77.92
21520;BME280;10921;53.614;9.882;2023-03-25T14:44:48;99703.31;;;11.36;81.59
21520;BME280;10921;53.614;9.882;2023-03-25T14:52:35;99677.34;;;11.22;83.09
21520;BME280;10921;53.614;9.882;2023-03-25T14:57:41;99684.00;;;11.26;83.72
21520;BME280;10921;53.614;9.882;2023-03-25T15:00:10;99692.84;;;11.26;83.55
21520;BME280;10921;53.614;9.882;2023-03-25T15:02:51;99676.72;;;11.12;83.33
21520;BME280;10921;53.614;9.882;2023-03-25T15:05:24;99645.03;;;11.01;83.74
21520;BME280;10921;53.614;9.882;2023-03-25T15:07:59;99692.34;;;11.23;83.89
21520;BME280;10921;53.614;9.882;2023-03-25T15:10:39;99668.53;;;11.13;85.01
21520;BME280;10921;53.614;9.882;2023-03-25T15:13:27;99682.06;;;11.12;85.89
21520;BME280;10921;53.614;9.882;2023-03-25T15:16:00;99648.28;;;10.88;85.35
21520;BME280;10921;53.614;9.882;2023-03-25T15:23:43;99656.94;;;10.98;87.29
21520;BME280;10921;53.614;9.882;2023-03-25T15:31:28;99648.75;;;11.00;85.16
21520;BME280;10921;53.614;9.882;2023-03-25T15:35:11;99632.84;;;11.06;85.13
21520;BME280;10921;53.614;9.882;2023-03-25T15:40:33;99627.00;;;11.11;83.11
21520;BME280;10921;53.614;9.882;2023-03-25T15:48:33;99631.50;;;11.10;82.73
21520;BME280;10921;53.614;9.882;2023-03-25T15:51:28;99588.44;;;10.82;82.50
21520;BME280;10921;53.614;9.882;2023-03-25T15:57:43;99630.75;;;10.93;82.64
21520;BME280;10921;53.614;9.882;2023-03-25T15:59:58;99596.97;;;10.70;82.24